Medicine Lake Lodge, California
Current Conditions -  °F | °C
As of 5:53 PM on Thursday 20 Nov 2014 (Local Time) from KLMT Reporting Station
Overcast Overcast  
Wind Chill: 37°   Ceiling: 3600
Heat Index: 40°   Visibility: 10mi
Dew Point: 37°   Wind: 5mph
Humidity: 89%   Direction: 360°N
Pressure: 29.96"   Gusts: NA
Location:  41.7207°N, 121.463°W
Report Text: KLMT 210153Z 36004KT 10SM BKN036 OVC043 04/03 A2996 RMK AO2 SLP151 T00440028
Loading
Personal Weather Stations






























Interactive Weather Map New forecast layout! Learn more

10-Day Weather Forecast

Advertisements
Track Severe Weather on mobile